This is the latest recevied weather packets stored in our database for station/object KD0RII. If no packets are shown the sender has not sent any weather packets the latest 10 day(s).
| Time | Temp. | Humidity | Pressure | Rain* | Wind** | Luminosity | Snow |
|---|---|---|---|---|---|---|---|
| 1777587556 | 18.89° C | 53% | 1017.4 hPa | 0 mm | - | 115 W/m² | - |
| 1777587251 | 19.44° C | 52% | 1017.4 hPa | 0 mm | - | 115 W/m² | - |
| 1777586947 | 20° C | 50% | 1017.4 hPa | 0 mm | - | 224 W/m² | - |
| 1777586643 | 20° C | 52% | 1017.5 hPa | 0 mm | - | 266 W/m² | - |
| 1777586338 | 20° C | 52% | 1017.6 hPa | 0 mm | - | 350 W/m² | - |
| 1777586037 | 20° C | 50% | 1017.6 hPa | 0 mm | - | 379 W/m² | - |
| 1777585736 | 20° C | 52% | 1017.4 hPa | 0 mm | - | 278 W/m² | - |
| 1777585431 | 20° C | 50% | 1017.5 hPa | 0 mm | - | 288 W/m² | - |
| 1777585126 | 20.56° C | 52% | 1017.6 hPa | 0 mm | - | 280 W/m² | - |
| 1777584823 | 20° C | 50% | 1017.6 hPa | 0 mm | - | 393 W/m² | - |
| 1777584521 | 20° C | 52% | 1017.7 hPa | 0 mm | - | 324 W/m² | - |
| 1777584217 | 19.44° C | 52% | 1017.7 hPa | 0 mm | - | 353 W/m² | - |
| 1777583916 | 19.44° C | 53% | 1018 hPa | 0 mm | - | 262 W/m² | - |
| 1777583612 | 19.44° C | 54% | 1017.9 hPa | 0 mm | - | 228 W/m² | - |
| 1777583311 | 19.44° C | 51% | 1017.9 hPa | 0 mm | - | 272 W/m² | - |
| 1777583006 | 19.44° C | 54% | 1018.2 hPa | 0 mm | - | 254 W/m² | - |
| 1777582703 | 18.89° C | 53% | 1018.2 hPa | 0 mm | - | 258 W/m² | - |
| 1777582398 | 18.89° C | 53% | 1018.3 hPa | 0 mm | - | 239 W/m² | - |
| 1777582097 | 18.33° C | 53% | 1018.4 hPa | 0 mm | - | 193 W/m² | - |
| 1777581797 | 18.89° C | 53% | 1018.3 hPa | 0 mm | - | 218 W/m² | - |
| 1777581496 | 18.89° C | 53% | 1018.4 hPa | 0 mm | - | 177 W/m² | - |
| 1777581191 | 18.89° C | 52% | 1018.6 hPa | 0 mm | - | 195 W/m² | - |
| 1777580886 | 18.89° C | 53% | 1018.6 hPa | 0 mm | - | 162 W/m² | - |
| 1777580580 | 18.89° C | 51% | 1018.6 hPa | 0 mm | - | 177 W/m² | - |
| 1777580276 | 18.89° C | 52% | 1018.8 hPa | 0 mm | - | 233 W/m² | - |
* Rain latest hour (hover to see other rain measurements)
** Current wind speed in m/s (hover to see current wind gust speed)